This is the latest recevied weather packets stored in our database for station/object G8PZT. If no packets are shown the sender has not sent any weather packets the latest 10 day(s).
| Time | Temp. | Humidity | Pressure | Rain* | Wind** | Luminosity | Snow |
|---|---|---|---|---|---|---|---|
| 1777926116 | 11.11° C | 49% | - | 0 mm | - | - | - |
| 1777926002 | 11.67° C | 48% | - | 0 mm | - | - | - |
| 1777925516 | 11.67° C | 47% | - | 0 mm | - | - | - |
| 1777924916 | 12.22° C | 47% | - | 0 mm | - | - | - |
| 1777924803 | 12.22° C | 47% | - | 0 mm | - | - | - |
| 1777923716 | 12.78° C | 45% | - | 0 mm | - | - | - |
| 1777923602 | 12.78° C | 45% | - | 0 mm | - | - | - |
| 1777923116 | 12.78° C | 44% | - | 0 mm | - | - | - |
| 1777922402 | 13.33° C | 42% | - | 0 mm | - | - | - |
| 1777921916 | 13.33° C | 42% | - | 0 mm | - | - | - |
| 1777921316 | 13.89° C | 40% | - | 0 mm | - | - | - |
| 1777921202 | 14.44° C | 39% | - | 0 mm | - | - | - |
| 1777920716 | 14.44° C | 38% | - | 0 mm | - | - | - |
| 1777919516 | 17.22° C | 26% | - | 0 mm | - | - | - |
| 1777918916 | 17.78° C | 25% | - | 0 mm | - | - | - |
| 1777918803 | 17.78° C | 26% | - | 0 mm | - | - | - |
| 1777918316 | 17.78° C | 26% | - | 0 mm | - | - | - |
| 1777917716 | 17.22° C | 27% | - | 0 mm | - | - | - |
| 1777917602 | 17.22° C | 27% | - | 0 mm | - | - | - |
| 1777917116 | 18.33° C | 26% | - | 0 mm | - | - | - |
| 1777916515 | 16.67° C | 29% | - | 0 mm | - | - | - |
| 1777916402 | 16.67° C | 27% | - | 0 mm | - | - | - |
| 1777915916 | 18.89° C | 23% | - | 0 mm | - | - | - |
| 1777915315 | 18.89° C | 26% | - | 0 mm | - | - | - |
| 1777915202 | 18.33° C | 31% | - | 0 mm | - | - | - |
* Rain latest hour (hover to see other rain measurements)
** Current wind speed in m/s (hover to see current wind gust speed)